aviador You're here:

GMMX Decoded Metar

MARRAKECH in MOROCCO
Report Time2018-06-25 11:30:00
UTC Time2018-06-25 11:57:31
Flight Rules vfr VFR
Wind340° at 05 kt
W.Decomp.*RWY 28: 2.3 kt HW 4.5 kt RCW
W.Rank340° ranks 19
Current wind is below 340° avg. (5.8)
Visibility9999 m
Phenomena:N/A
Clouds:N/A
Expected CloudBase > 4,000 ft AGL from Temp-Dew spread
CeilingNone
Temp25°C (ISA +13)
Dew Point15°C (54% RH)
AAT24.8°C
QNH1017 hPa
Density Alt3,133 ft
Elevation1,529 ft
Report Wrong Elevation
Raw Report
GMMX 251130Z 34005KT 290V100 CAVOK 25/15 Q1017 NOSIG=

Extra information for GMMX:More info

Metar Taf Metar & Taf Last 4 Metars F.Rules Stats Wind Profile Meteogram Temp Stats Airport Information Weather charts Add Link Nearby VenuesMetar ALERT Operation Metar Decoded Social comments